Terminal Aerodrome Forecast
Issued by NWS

Home | Current Version | Previous Version | Text Only | Print | Product List | Glossary On
Versions: 1 2 3 4 5 6 7 8 9 10 11 12 13 14 15 16 17
000
FTUS43 KILX 220700 AAA
TAFBMI
TAF AMD
KBMI 220748Z 2208/2306 16013KT P6SM VCSH OVC035
     FM221300 14011KT P6SM OVC030
     FM221600 14012KT 3SM -RA BR OVC008
     FM221900 14014KT 1SM -RA BR OVC005=

USA.gov is the U.S. government's official web portal to all federal, state and local government web resources and services.